sensor_id;sensor_type;location;lat;lon;timestamp;pressure;altitude;pressure_sealevel;temperature;humidity
12757;BME280;31601;48.042;12.240;2023-04-01T00:01:01;94982.56;;;10.01;57.32
12757;BME280;31601;48.042;12.240;2023-04-01T00:03:30;94976.91;;;10.04;57.73
12757;BME280;31601;48.042;12.240;2023-04-01T00:05:58;94980.44;;;9.84;57.62
12757;BME280;31601;48.042;12.240;2023-04-01T00:08:26;94979.69;;;9.71;58.59
12757;BME280;31601;48.042;12.240;2023-04-01T00:10:53;94979.69;;;10.09;57.72
12757;BME280;31601;48.042;12.240;2023-04-01T00:13:20;94979.97;;;10.01;57.66
12757;BME280;31601;48.042;12.240;2023-04-01T00:15:47;94991.69;;;10.24;57.21
12757;BME280;31601;48.042;12.240;2023-04-01T00:18:14;94969.78;;;10.11;57.53
12757;BME280;31601;48.042;12.240;2023-04-01T00:20:45;94969.66;;;10.31;57.10
12757;BME280;31601;48.042;12.240;2023-04-01T00:23:12;94976.16;;;10.29;56.95
12757;BME280;31601;48.042;12.240;2023-04-01T00:25:38;94975.72;;;10.32;56.83
12757;BME280;31601;48.042;12.240;2023-04-01T00:28:05;94979.69;;;10.09;57.56
12757;BME280;31601;48.042;12.240;2023-04-01T00:30:31;94974.38;;;9.91;57.82
12757;BME280;31601;48.042;12.240;2023-04-01T00:32:58;94992.03;;;10.02;58.14
12757;BME280;31601;48.042;12.240;2023-04-01T00:35:24;94988.13;;;10.11;57.46
12757;BME280;31601;48.042;12.240;2023-04-01T00:37:52;94994.84;;;10.07;57.64
12757;BME280;31601;48.042;12.240;2023-04-01T00:40:25;94988.44;;;9.96;58.34
12757;BME280;31601;48.042;12.240;2023-04-01T00:42:52;94987.63;;;10.28;57.56
12757;BME280;31601;48.042;12.240;2023-04-01T00:45:38;94992.31;;;10.19;57.78
12757;BME280;31601;48.042;12.240;2023-04-01T00:48:08;94995.28;;;9.97;58.49
12757;BME280;31601;48.042;12.240;2023-04-01T00:50:35;94985.19;;;10.01;58.37
12757;BME280;31601;48.042;12.240;2023-04-01T00:53:05;94981.53;;;10.02;58.34
12757;BME280;31601;48.042;12.240;2023-04-01T00:55:35;94981.81;;;10.26;57.60
12757;BME280;31601;48.042;12.240;2023-04-01T00:58:05;94979.66;;;10.16;57.91
12757;BME280;31601;48.042;12.240;2023-04-01T01:00:34;94965.59;;;10.03;58.68
12757;BME280;31601;48.042;12.240;2023-04-01T01:03:02;94964.97;;;10.08;58.44
12757;BME280;31601;48.042;12.240;2023-04-01T01:05:36;94963.13;;;10.15;58.40
12757;BME280;31601;48.042;12.240;2023-04-01T01:08:13;94961.97;;;10.04;58.39
12757;BME280;31601;48.042;12.240;2023-04-01T01:10:43;94962.56;;;10.07;58.56
12757;BME280;31601;48.042;12.240;2023-04-01T01:13:17;94960.78;;;10.07;58.44
12757;BME280;31601;48.042;12.240;2023-04-01T01:15:50;94956.59;;;9.99;58.69
12757;BME280;31601;48.042;12.240;2023-04-01T01:18:23;94962.03;;;9.98;58.65
12757;BME280;31601;48.042;12.240;2023-04-01T01:21:18;94955.53;;;10.07;58.52
12757;BME280;31601;48.042;12.240;2023-04-01T01:24:13;94961.94;;;10.11;57.97
12757;BME280;31601;48.042;12.240;2023-04-01T01:26:57;94960.34;;;10.10;57.94
12757;BME280;31601;48.042;12.240;2023-04-01T01:29:54;94958.69;;;10.16;57.75
12757;BME280;31601;48.042;12.240;2023-04-01T01:35:31;94961.28;;;10.16;57.91
12757;BME280;31601;48.042;12.240;2023-04-01T01:38:00;94962.16;;;10.10;57.96
12757;BME280;31601;48.042;12.240;2023-04-01T01:40:29;94957.31;;;10.13;57.76
12757;BME280;31601;48.042;12.240;2023-04-01T01:43:00;94958.72;;;10.09;58.20
12757;BME280;31601;48.042;12.240;2023-04-01T01:45:30;94955.59;;;10.26;57.98
12757;BME280;31601;48.042;12.240;2023-04-01T01:48:00;94954.69;;;10.13;58.87
12757;BME280;31601;48.042;12.240;2023-04-01T01:50:29;94947.75;;;10.26;59.07
12757;BME280;31601;48.042;12.240;2023-04-01T01:53:01;94954.13;;;10.04;59.66
12757;BME280;31601;48.042;12.240;2023-04-01T01:55:29;94951.66;;;10.10;59.27
12757;BME280;31601;48.042;12.240;2023-04-01T01:57:59;94962.28;;;10.21;59.17
12757;BME280;31601;48.042;12.240;2023-04-01T02:00:27;94957.81;;;10.29;58.83
12757;BME280;31601;48.042;12.240;2023-04-01T02:02:55;94945.91;;;10.26;58.95
12757;BME280;31601;48.042;12.240;2023-04-01T02:05:26;94946.13;;;10.25;59.01
12757;BME280;31601;48.042;12.240;2023-04-01T02:08:00;94945.50;;;10.29;58.83
12757;BME280;31601;48.042;12.240;2023-04-01T02:10:28;94951.16;;;10.26;58.97
12757;BME280;31601;48.042;12.240;2023-04-01T02:13:01;94953.44;;;10.16;58.72
12757;BME280;31601;48.042;12.240;2023-04-01T02:15:33;94959.38;;;10.30;58.64
12757;BME280;31601;48.042;12.240;2023-04-01T02:18:03;94957.09;;;10.15;58.87
12757;BME280;31601;48.042;12.240;2023-04-01T02:20:31;94958.22;;;10.26;58.10
12757;BME280;31601;48.042;12.240;2023-04-01T02:22:59;94957.41;;;10.25;58.47
12757;BME280;31601;48.042;12.240;2023-04-01T02:25:27;94963.13;;;10.15;58.36
12757;BME280;31601;48.042;12.240;2023-04-01T02:27:56;94960.03;;;10.25;58.48
12757;BME280;31601;48.042;12.240;2023-04-01T02:30:25;94967.84;;;10.32;57.92
12757;BME280;31601;48.042;12.240;2023-04-01T02:32:53;94972.34;;;10.25;58.18
12757;BME280;31601;48.042;12.240;2023-04-01T02:35:21;94968.78;;;10.12;58.46
12757;BME280;31601;48.042;12.240;2023-04-01T02:37:49;94974.47;;;10.09;58.18
12757;BME280;31601;48.042;12.240;2023-04-01T02:40:18;94969.59;;;10.13;58.02
12757;BME280;31601;48.042;12.240;2023-04-01T02:42:45;94964.22;;;10.33;57.65
12757;BME280;31601;48.042;12.240;2023-04-01T02:45:13;94967.84;;;10.32;57.65
12757;BME280;31601;48.042;12.240;2023-04-01T02:47:40;94979.66;;;10.16;57.95
12757;BME280;31601;48.042;12.240;2023-04-01T02:50:07;94978.56;;;10.30;57.67
12757;BME280;31601;48.042;12.240;2023-04-01T02:52:34;94982.41;;;10.28;57.75
12757;BME280;31601;48.042;12.240;2023-04-01T02:55:00;94981.00;;;10.25;57.73
12757;BME280;31601;48.042;12.240;2023-04-01T02:57:29;94978.69;;;10.10;58.45
12757;BME280;31601;48.042;12.240;2023-04-01T02:59:55;94988.50;;;10.21;57.86
12757;BME280;31601;48.042;12.240;2023-04-01T03:02:21;94987.34;;;10.11;58.40
12757;BME280;31601;48.042;12.240;2023-04-01T03:04:48;94989.34;;;10.15;57.88
12757;BME280;31601;48.042;12.240;2023-04-01T03:07:14;94989.69;;;10.19;57.97
12757;BME280;31601;48.042;12.240;2023-04-01T03:09:41;94987.06;;;10.26;57.84
12757;BME280;31601;48.042;12.240;2023-04-01T03:12:07;94990.25;;;10.28;57.69
12757;BME280;31601;48.042;12.240;2023-04-01T03:14:35;94987.28;;;10.17;57.96
12757;BME280;31601;48.042;12.240;2023-04-01T03:17:01;94993.38;;;10.11;57.93
12757;BME280;31601;48.042;12.240;2023-04-01T03:19:28;94996.00;;;10.11;58.00
12757;BME280;31601;48.042;12.240;2023-04-01T03:21:54;95005.38;;;9.94;58.17
12757;BME280;31601;48.042;12.240;2023-04-01T03:24:20;95000.72;;;9.96;58.16
12757;BME280;31601;48.042;12.240;2023-04-01T03:26:47;95005.63;;;9.85;58.26
12757;BME280;31601;48.042;12.240;2023-04-01T03:29:13;95001.44;;;10.10;57.80
12757;BME280;31601;48.042;12.240;2023-04-01T03:31:42;95000.50;;;9.97;57.69
12757;BME280;31601;48.042;12.240;2023-04-01T03:34:08;94993.78;;;10.15;57.31
12757;BME280;31601;48.042;12.240;2023-04-01T03:36:35;95004.78;;;10.24;57.05
12757;BME280;31601;48.042;12.240;2023-04-01T03:39:01;95010.09;;;10.17;57.37
12757;BME280;31601;48.042;12.240;2023-04-01T03:41:28;95005.84;;;10.16;57.48
12757;BME280;31601;48.042;12.240;2023-04-01T03:43:55;95008.69;;;10.14;57.22
12757;BME280;31601;48.042;12.240;2023-04-01T03:46:22;95019.44;;;10.06;57.32
12757;BME280;31601;48.042;12.240;2023-04-01T03:48:50;95017.38;;;10.08;57.33
12757;BME280;31601;48.042;12.240;2023-04-01T03:51:16;95025.97;;;10.22;57.18
12757;BME280;31601;48.042;12.240;2023-04-01T03:53:42;95013.25;;;9.94;57.80
12757;BME280;31601;48.042;12.240;2023-04-01T03:56:09;95011.88;;;9.84;57.97
12757;BME280;31601;48.042;12.240;2023-04-01T03:58:36;95013.09;;;10.20;57.01
12757;BME280;31601;48.042;12.240;2023-04-01T04:01:13;95008.53;;;10.09;57.33
12757;BME280;31601;48.042;12.240;2023-04-01T04:03:39;95006.16;;;10.01;57.12
12757;BME280;31601;48.042;12.240;2023-04-01T04:06:10;95015.38;;;10.10;57.08
12757;BME280;31601;48.042;12.240;2023-04-01T04:08:38;95020.94;;;9.89;57.69
12757;BME280;31601;48.042;12.240;2023-04-01T04:11:04;95019.47;;;9.93;57.70
12757;BME280;31601;48.042;12.240;2023-04-01T04:13:30;95023.72;;;9.94;57.90
12757;BME280;31601;48.042;12.240;2023-04-01T04:15:57;95016.03;;;9.99;57.28
12757;BME280;31601;48.042;12.240;2023-04-01T04:18:24;95017.28;;;9.96;56.87
12757;BME280;31601;48.042;12.240;2023-04-01T04:20:50;95015.78;;;9.68;57.41
12757;BME280;31601;48.042;12.240;2023-04-01T04:23:18;95020.00;;;9.70;57.89
12757;BME280;31601;48.042;12.240;2023-04-01T04:25:53;95020.69;;;9.45;58.41
12757;BME280;31601;48.042;12.240;2023-04-01T04:28:20;95028.88;;;9.62;58.05
12757;BME280;31601;48.042;12.240;2023-04-01T04:30:46;95025.84;;;9.65;57.81
12757;BME280;31601;48.042;12.240;2023-04-01T04:33:13;95036.19;;;9.46;58.19
12757;BME280;31601;48.042;12.240;2023-04-01T04:35:39;95030.50;;;9.63;58.24
12757;BME280;31601;48.042;12.240;2023-04-01T04:38:05;95029.66;;;9.69;57.91
12757;BME280;31601;48.042;12.240;2023-04-01T04:40:35;95034.94;;;9.62;58.13
12757;BME280;31601;48.042;12.240;2023-04-01T04:43:02;95032.91;;;9.64;57.88
12757;BME280;31601;48.042;12.240;2023-04-01T04:45:29;95035.91;;;9.68;57.94
12757;BME280;31601;48.042;12.240;2023-04-01T04:47:56;95042.63;;;9.50;58.38
12757;BME280;31601;48.042;12.240;2023-04-01T04:50:23;95036.38;;;9.52;58.40
12757;BME280;31601;48.042;12.240;2023-04-01T04:52:50;95041.81;;;9.57;58.05
12757;BME280;31601;48.042;12.240;2023-04-01T04:55:17;95042.09;;;9.28;58.92
12757;BME280;31601;48.042;12.240;2023-04-01T04:57:45;95046.25;;;9.49;58.60
12757;BME280;31601;48.042;12.240;2023-04-01T05:00:12;95049.31;;;9.40;59.06
12757;BME280;31601;48.042;12.240;2023-04-01T05:02:38;95059.72;;;9.60;58.86
12757;BME280;31601;48.042;12.240;2023-04-01T05:05:05;95053.31;;;9.49;59.20
12757;BME280;31601;48.042;12.240;2023-04-01T05:07:32;95043.41;;;9.58;58.82
12757;BME280;31601;48.042;12.240;2023-04-01T05:09:59;95040.31;;;9.74;58.27
12757;BME280;31601;48.042;12.240;2023-04-01T05:12:26;95042.09;;;9.87;58.00
12757;BME280;31601;48.042;12.240;2023-04-01T05:14:53;95043.34;;;9.78;58.19
12757;BME280;31601;48.042;12.240;2023-04-01T05:17:20;95044.50;;;9.89;57.81
12757;BME280;31601;48.042;12.240;2023-04-01T05:19:46;95051.94;;;9.92;57.94
12757;BME280;31601;48.042;12.240;2023-04-01T05:22:13;95050.38;;;9.77;58.11
12757;BME280;31601;48.042;12.240;2023-04-01T05:24:39;95059.41;;;9.95;57.74
12757;BME280;31601;48.042;12.240;2023-04-01T05:27:05;95058.16;;;10.04;57.50
12757;BME280;31601;48.042;12.240;2023-04-01T05:29:32;95063.13;;;10.12;57.34
12757;BME280;31601;48.042;12.240;2023-04-01T05:32:01;95070.81;;;10.07;57.56
12757;BME280;31601;48.042;12.240;2023-04-01T05:34:27;95063.59;;;9.96;57.72
12757;BME280;31601;48.042;12.240;2023-04-01T05:36:54;95059.19;;;9.90;57.86
12757;BME280;31601;48.042;12.240;2023-04-01T05:39:20;95057.56;;;9.95;57.77
12757;BME280;31601;48.042;12.240;2023-04-01T05:41:47;95063.56;;;10.09;56.74
12757;BME280;31601;48.042;12.240;2023-04-01T05:44:13;95069.69;;;9.90;57.60
12757;BME280;31601;48.042;12.240;2023-04-01T05:46:39;95064.88;;;10.25;57.00
12757;BME280;31601;48.042;12.240;2023-04-01T05:49:07;95065.09;;;10.24;57.07
12757;BME280;31601;48.042;12.240;2023-04-01T05:51:34;95060.59;;;10.37;56.60
12757;BME280;31601;48.042;12.240;2023-04-01T05:54:00;95059.31;;;10.53;56.13
12757;BME280;31601;48.042;12.240;2023-04-01T05:56:26;95064.81;;;10.70;56.24
12757;BME280;31601;48.042;12.240;2023-04-01T05:58:53;95060.97;;;10.73;55.46
12757;BME280;31601;48.042;12.240;2023-04-01T06:01:20;95063.44;;;10.68;55.17
12757;BME280;31601;48.042;12.240;2023-04-01T06:03:47;95057.81;;;10.89;55.01
12757;BME280;31601;48.042;12.240;2023-04-01T06:06:19;95052.03;;;10.81;54.87
12757;BME280;31601;48.042;12.240;2023-04-01T06:08:49;95054.38;;;10.89;54.60
12757;BME280;31601;48.042;12.240;2023-04-01T06:11:22;95051.81;;;10.82;54.04
12757;BME280;31601;48.042;12.240;2023-04-01T06:14:04;95067.72;;;10.87;54.54
12757;BME280;31601;48.042;12.240;2023-04-01T06:16:42;95061.59;;;10.68;54.41
12757;BME280;31601;48.042;12.240;2023-04-01T06:19:22;95058.72;;;10.77;54.46
12757;BME280;31601;48.042;12.240;2023-04-01T06:25:13;95071.66;;;10.71;54.36
12757;BME280;31601;48.042;12.240;2023-04-01T06:27:55;95061.81;;;10.92;54.46
12757;BME280;31601;48.042;12.240;2023-04-01T06:30:34;95065.03;;;10.69;54.54
12757;BME280;31601;48.042;12.240;2023-04-01T06:33:28;95070.94;;;10.89;54.43
12757;BME280;31601;48.042;12.240;2023-04-01T06:36:10;95069.38;;;11.07;53.88
12757;BME280;31601;48.042;12.240;2023-04-01T06:38:48;95063.28;;;11.13;53.83
12757;BME280;31601;48.042;12.240;2023-04-01T06:42:06;95063.50;;;11.30;53.83
12757;BME280;31601;48.042;12.240;2023-04-01T06:44:42;95061.97;;;11.22;53.29
12757;BME280;31601;48.042;12.240;2023-04-01T06:47:21;95063.19;;;11.45;53.17
12757;BME280;31601;48.042;12.240;2023-04-01T06:49:56;95061.78;;;11.79;52.43
12757;BME280;31601;48.042;12.240;2023-04-01T06:52:37;95057.56;;;11.97;51.61
12757;BME280;31601;48.042;12.240;2023-04-01T06:55:24;95056.75;;;11.78;51.63
12757;BME280;31601;48.042;12.240;2023-04-01T06:57:55;95062.03;;;11.96;51.55
12757;BME280;31601;48.042;12.240;2023-04-01T07:00:27;95058.59;;;11.96;51.20
12757;BME280;31601;48.042;12.240;2023-04-01T07:03:02;95056.00;;;11.89;51.20
12757;BME280;31601;48.042;12.240;2023-04-01T07:05:32;95055.97;;;11.96;50.89
12757;BME280;31601;48.042;12.240;2023-04-01T07:08:02;95061.88;;;12.10;50.65
12757;BME280;31601;48.042;12.240;2023-04-01T07:10:34;95050.69;;;12.14;50.29
12757;BME280;31601;48.042;12.240;2023-04-01T07:13:04;95057.38;;;12.29;50.83
12757;BME280;31601;48.042;12.240;2023-04-01T07:15:36;95046.50;;;12.25;50.78
12757;BME280;31601;48.042;12.240;2023-04-01T07:18:09;95051.50;;;12.57;50.62
12757;BME280;31601;48.042;12.240;2023-04-01T07:20:38;95054.22;;;12.50;49.94
12757;BME280;31601;48.042;12.240;2023-04-01T07:23:08;95055.63;;;12.53;49.56
12757;BME280;31601;48.042;12.240;2023-04-01T07:25:39;95053.81;;;12.77;50.04
12757;BME280;31601;48.042;12.240;2023-04-01T07:28:13;95058.31;;;12.46;49.81
12757;BME280;31601;48.042;12.240;2023-04-01T07:30:50;95049.03;;;12.32;50.67
12757;BME280;31601;48.042;12.240;2023-04-01T07:33:21;95052.59;;;12.80;50.33
12757;BME280;31601;48.042;12.240;2023-04-01T07:35:55;95054.50;;;12.61;51.02
12757;BME280;31601;48.042;12.240;2023-04-01T07:38:32;95050.06;;;12.73;50.54
12757;BME280;31601;48.042;12.240;2023-04-01T07:41:05;95060.47;;;12.80;49.88
12757;BME280;31601;48.042;12.240;2023-04-01T07:43:54;95052.28;;;13.00;49.44
12757;BME280;31601;48.042;12.240;2023-04-01T07:46:33;95066.47;;;13.11;48.95
12757;BME280;31601;48.042;12.240;2023-04-01T07:49:07;95064.72;;;12.81;48.22
12757;BME280;31601;48.042;12.240;2023-04-01T07:51:37;95082.09;;;12.82;49.09
12757;BME280;31601;48.042;12.240;2023-04-01T07:54:08;95076.22;;;12.68;49.19
12757;BME280;31601;48.042;12.240;2023-04-01T07:56:40;95076.38;;;12.85;48.25
12757;BME280;31601;48.042;12.240;2023-04-01T07:59:15;95083.38;;;12.91;48.46
12757;BME280;31601;48.042;12.240;2023-04-01T08:01:51;95073.22;;;13.18;47.48
12757;BME280;31601;48.042;12.240;2023-04-01T08:04:30;95085.25;;;13.14;48.18
12757;BME280;31601;48.042;12.240;2023-04-01T08:07:07;95081.28;;;13.47;47.67
12757;BME280;31601;48.042;12.240;2023-04-01T08:09:42;95081.16;;;13.42;47.05
12757;BME280;31601;48.042;12.240;2023-04-01T08:12:22;95079.22;;;13.37;47.94
12757;BME280;31601;48.042;12.240;2023-04-01T08:15:01;95080.50;;;13.35;47.99
12757;BME280;31601;48.042;12.240;2023-04-01T08:17:36;95073.81;;;13.79;46.99
12757;BME280;31601;48.042;12.240;2023-04-01T08:20:15;95062.56;;;13.72;47.69
12757;BME280;31601;48.042;12.240;2023-04-01T08:22:49;95070.06;;;14.04;46.59
12757;BME280;31601;48.042;12.240;2023-04-01T08:25:20;95063.91;;;14.27;45.81
12757;BME280;31601;48.042;12.240;2023-04-01T08:27:51;95061.56;;;13.50;46.45
12757;BME280;31601;48.042;12.240;2023-04-01T08:30:23;95068.00;;;13.54;48.26
12757;BME280;31601;48.042;12.240;2023-04-01T08:32:53;95060.38;;;13.81;47.48
12757;BME280;31601;48.042;12.240;2023-04-01T08:35:27;95062.97;;;13.93;46.58
12757;BME280;31601;48.042;12.240;2023-04-01T08:38:04;95060.75;;;13.14;47.06
12757;BME280;31601;48.042;12.240;2023-04-01T08:40:43;95065.31;;;13.06;48.12
12757;BME280;31601;48.042;12.240;2023-04-01T08:43:25;95069.56;;;13.07;48.14
12757;BME280;31601;48.042;12.240;2023-04-01T08:46:12;95065.66;;;12.98;48.33
12757;BME280;31601;48.042;12.240;2023-04-01T08:49:06;95058.25;;;13.54;47.08
12757;BME280;31601;48.042;12.240;2023-04-01T08:52:12;95056.94;;;13.81;47.87
12757;BME280;31601;48.042;12.240;2023-04-01T08:55:12;95050.47;;;14.00;47.75
12757;BME280;31601;48.042;12.240;2023-04-01T08:57:53;95050.22;;;14.13;46.02
12757;BME280;31601;48.042;12.240;2023-04-01T09:00:31;95046.44;;;13.69;46.59
12757;BME280;31601;48.042;12.240;2023-04-01T09:06:25;95040.31;;;14.21;45.29
12757;BME280;31601;48.042;12.240;2023-04-01T09:15:40;95029.56;;;14.68;45.54
12757;BME280;31601;48.042;12.240;2023-04-01T09:18:30;95034.38;;;14.88;45.33
12757;BME280;31601;48.042;12.240;2023-04-01T09:21:37;95040.59;;;14.99;45.01
12757;BME280;31601;48.042;12.240;2023-04-01T09:24:32;95024.75;;;14.99;43.71
12757;BME280;31601;48.042;12.240;2023-04-01T09:27:13;95032.16;;;15.36;44.81
12757;BME280;31601;48.042;12.240;2023-04-01T09:30:07;95021.75;;;15.68;43.91
12757;BME280;31601;48.042;12.240;2023-04-01T09:35:38;95024.03;;;14.86;42.81
12757;BME280;31601;48.042;12.240;2023-04-01T09:38:20;95021.03;;;15.73;43.36
12757;BME280;31601;48.042;12.240;2023-04-01T09:40:56;95020.63;;;16.31;42.37
12757;BME280;31601;48.042;12.240;2023-04-01T09:43:26;95025.41;;;15.84;41.53
12757;BME280;31601;48.042;12.240;2023-04-01T09:46:10;95015.28;;;15.37;42.62
12757;BME280;31601;48.042;12.240;2023-04-01T09:48:56;95035.31;;;14.99;43.38
12757;BME280;31601;48.042;12.240;2023-04-01T09:51:32;95028.06;;;15.06;42.91
12757;BME280;31601;48.042;12.240;2023-04-01T09:54:16;95029.31;;;14.86;43.56
12757;BME280;31601;48.042;12.240;2023-04-01T09:57:06;95021.09;;;14.37;42.65
12757;BME280;31601;48.042;12.240;2023-04-01T09:59:47;95024.03;;;14.70;43.53
12757;BME280;31601;48.042;12.240;2023-04-01T10:02:56;95016.66;;;14.89;42.94
12757;BME280;31601;48.042;12.240;2023-04-01T10:12:24;95000.47;;;15.58;41.83
12757;BME280;31601;48.042;12.240;2023-04-01T10:18:12;94988.91;;;15.86;40.84
12757;BME280;31601;48.042;12.240;2023-04-01T10:20:54;94985.25;;;15.87;40.45
12757;BME280;31601;48.042;12.240;2023-04-01T10:23:37;94986.81;;;15.44;42.08
12757;BME280;31601;48.042;12.240;2023-04-01T10:26:42;94991.78;;;15.18;40.79
12757;BME280;31601;48.042;12.240;2023-04-01T10:29:30;94989.88;;;15.36;42.04
12757;BME280;31601;48.042;12.240;2023-04-01T10:32:30;94978.88;;;15.44;41.71
12757;BME280;31601;48.042;12.240;2023-04-01T10:35:28;94981.31;;;14.90;43.22
12757;BME280;31601;48.042;12.240;2023-04-01T10:38:20;94970.84;;;14.61;43.10
12757;BME280;31601;48.042;12.240;2023-04-01T10:44:26;94974.28;;;14.95;40.79
12757;BME280;31601;48.042;12.240;2023-04-01T10:47:37;94970.34;;;14.64;43.42
12757;BME280;31601;48.042;12.240;2023-04-01T10:50:25;94969.16;;;14.72;43.29
12757;BME280;31601;48.042;12.240;2023-04-01T10:53:32;94968.03;;;15.01;40.88
12757;BME280;31601;48.042;12.240;2023-04-01T10:56:30;94965.41;;;14.84;41.78
12757;BME280;31601;48.042;12.240;2023-04-01T11:02:30;94963.34;;;14.58;42.89
12757;BME280;31601;48.042;12.240;2023-04-01T11:08:23;94954.97;;;13.69;45.01
12757;BME280;31601;48.042;12.240;2023-04-01T11:14:45;94960.34;;;14.03;42.73
12757;BME280;31601;48.042;12.240;2023-04-01T11:17:42;94950.28;;;14.00;43.52
12757;BME280;31601;48.042;12.240;2023-04-01T11:23:45;94962.66;;;14.00;43.15
12757;BME280;31601;48.042;12.240;2023-04-01T11:26:23;94966.41;;;13.34;44.08
12757;BME280;31601;48.042;12.240;2023-04-01T11:29:13;94964.09;;;13.90;43.49
12757;BME280;31601;48.042;12.240;2023-04-01T11:31:55;94973.13;;;14.40;42.38
12757;BME280;31601;48.042;12.240;2023-04-01T11:34:39;94981.06;;;14.11;43.32
12757;BME280;31601;48.042;12.240;2023-04-01T11:37:18;94972.94;;;13.84;44.79
12757;BME280;31601;48.042;12.240;2023-04-01T11:39:54;94975.75;;;13.66;44.32
12757;BME280;31601;48.042;12.240;2023-04-01T11:42:30;94987.25;;;13.36;45.48
12757;BME280;31601;48.042;12.240;2023-04-01T11:45:10;94989.31;;;12.98;45.43
12757;BME280;31601;48.042;12.240;2023-04-01T11:47:52;94982.09;;;13.82;45.52
12757;BME280;31601;48.042;12.240;2023-04-01T11:50:30;94992.66;;;13.82;45.25
12757;BME280;31601;48.042;12.240;2023-04-01T11:53:15;94983.34;;;13.79;46.24
12757;BME280;31601;48.042;12.240;2023-04-01T11:55:55;94994.88;;;13.61;47.39
12757;BME280;31601;48.042;12.240;2023-04-01T12:01:33;94995.47;;;13.51;47.12
12757;BME280;31601;48.042;12.240;2023-04-01T12:04:24;95010.94;;;12.88;46.85
12757;BME280;31601;48.042;12.240;2023-04-01T12:07:03;95013.09;;;12.80;47.70
12757;BME280;31601;48.042;12.240;2023-04-01T12:09:40;95014.25;;;12.96;47.07
12757;BME280;31601;48.042;12.240;2023-04-01T12:12:19;95023.19;;;12.29;47.74
12757;BME280;31601;48.042;12.240;2023-04-01T12:14:57;95024.09;;;13.00;47.85
12757;BME280;31601;48.042;12.240;2023-04-01T12:17:31;95021.91;;;12.97;49.08
12757;BME280;31601;48.042;12.240;2023-04-01T12:20:17;95025.59;;;12.96;47.65
12757;BME280;31601;48.042;12.240;2023-04-01T12:22:57;95014.72;;;12.81;48.30
12757;BME280;31601;48.042;12.240;2023-04-01T12:25:44;95025.13;;;12.87;48.06
12757;BME280;31601;48.042;12.240;2023-04-01T12:28:21;95028.13;;;13.03;49.76
12757;BME280;31601;48.042;12.240;2023-04-01T12:31:00;95034.81;;;12.63;48.77
12757;BME280;31601;48.042;12.240;2023-04-01T12:33:58;95040.91;;;12.64;50.18
12757;BME280;31601;48.042;12.240;2023-04-01T12:36:53;95045.72;;;12.06;52.79
12757;BME280;31601;48.042;12.240;2023-04-01T12:40:02;95058.41;;;12.09;52.45
12757;BME280;31601;48.042;12.240;2023-04-01T12:42:44;95057.06;;;11.88;53.15
12757;BME280;31601;48.042;12.240;2023-04-01T12:45:27;95059.25;;;12.10;54.00
12757;BME280;31601;48.042;12.240;2023-04-01T12:51:12;95069.50;;;12.72;51.99
12757;BME280;31601;48.042;12.240;2023-04-01T12:54:00;95066.94;;;11.93;53.01
12757;BME280;31601;48.042;12.240;2023-04-01T12:56:39;95067.47;;;12.86;53.30
12757;BME280;31601;48.042;12.240;2023-04-01T12:59:28;95076.31;;;13.03;52.17
12757;BME280;31601;48.042;12.240;2023-04-01T13:02:01;95085.91;;;12.86;53.20
12757;BME280;31601;48.042;12.240;2023-04-01T13:04:51;95090.69;;;12.77;56.47
12757;BME280;31601;48.042;12.240;2023-04-01T13:07:32;95106.00;;;12.80;55.50
12757;BME280;31601;48.042;12.240;2023-04-01T13:10:08;95093.69;;;11.83;55.82
12757;BME280;31601;48.042;12.240;2023-04-01T13:12:55;95100.31;;;11.67;57.72
12757;BME280;31601;48.042;12.240;2023-04-01T13:15:29;95090.34;;;11.76;57.58
12757;BME280;31601;48.042;12.240;2023-04-01T13:18:03;95097.34;;;12.19;57.29
12757;BME280;31601;48.042;12.240;2023-04-01T13:20:42;95088.13;;;12.28;56.88
12757;BME280;31601;48.042;12.240;2023-04-01T13:23:28;95100.59;;;12.63;56.65
12757;BME280;31601;48.042;12.240;2023-04-01T13:26:06;95103.59;;;12.67;56.39
12757;BME280;31601;48.042;12.240;2023-04-01T13:28:39;95104.72;;;12.71;55.73
12757;BME280;31601;48.042;12.240;2023-04-01T13:31:22;95100.59;;;13.17;56.43
12757;BME280;31601;48.042;12.240;2023-04-01T13:33:58;95100.88;;;13.39;56.24
12757;BME280;31601;48.042;12.240;2023-04-01T13:36:29;95097.19;;;13.52;54.77
12757;BME280;31601;48.042;12.240;2023-04-01T13:39:31;95102.44;;;13.17;55.29
12757;BME280;31601;48.042;12.240;2023-04-01T13:42:13;95116.69;;;13.39;55.56
12757;BME280;31601;48.042;12.240;2023-04-01T13:44:48;95108.88;;;13.45;56.08
12757;BME280;31601;48.042;12.240;2023-04-01T13:47:36;95102.44;;;13.17;56.35
12757;BME280;31601;48.042;12.240;2023-04-01T13:50:26;95096.59;;;13.26;56.66
12757;BME280;31601;48.042;12.240;2023-04-01T13:53:15;95096.00;;;13.13;56.61
12757;BME280;31601;48.042;12.240;2023-04-01T13:55:54;95101.78;;;13.33;57.04
12757;BME280;31601;48.042;12.240;2023-04-01T13:58:45;95103.91;;;13.24;56.08
12757;BME280;31601;48.042;12.240;2023-04-01T14:01:23;95104.50;;;13.26;56.30
12757;BME280;31601;48.042;12.240;2023-04-01T14:04:07;95106.69;;;12.76;56.56
12757;BME280;31601;48.042;12.240;2023-04-01T14:06:56;95103.53;;;12.85;57.11
12757;BME280;31601;48.042;12.240;2023-04-01T14:09:38;95112.78;;;12.88;57.45
12757;BME280;31601;48.042;12.240;2023-04-01T14:12:13;95114.88;;;12.98;56.77
12757;BME280;31601;48.042;12.240;2023-04-01T14:14:54;95104.69;;;13.01;58.09
12757;BME280;31601;48.042;12.240;2023-04-01T14:17:40;95107.47;;;12.64;57.92
12757;BME280;31601;48.042;12.240;2023-04-01T14:20:22;95103.44;;;12.50;58.73
12757;BME280;31601;48.042;12.240;2023-04-01T14:23:04;95118.00;;;12.64;59.16
12757;BME280;31601;48.042;12.240;2023-04-01T14:25:50;95114.38;;;12.47;58.46
12757;BME280;31601;48.042;12.240;2023-04-01T14:28:28;95111.81;;;12.28;59.23